Time;durP1;ratioP1;P1;durP2;ratioP2;P2;SDS_P1;SDS_P2;PMS_P1;PMS_P2;Temp;Humidity;BMP_temperature;BMP_pressure;BME280_temperature;BME280_humidity;BME280_pressure;Samples;Min_cycle;Max_cycle;Signal;HPM_P1;HPM_P2
2022/09/26 00:05:26;;;;;;;6.75;4.47;;;6.10;99.90;;;;;;21057162;28;20396;-49
2022/09/26 00:15:29;;;;;;;3.63;2.50;;;6.30;99.90;;;;;;21057796;28;20338;-57
2022/09/26 00:25:31;;;;;;;8.40;5.07;;;6.30;99.90;;;;;;21055679;28;20061;-49
2022/09/26 00:35:33;;;;;;;7.93;4.72;;;6.00;99.90;;;;;;21054112;28;20085;-48
2022/09/26 00:45:36;;;;;;;7.10;3.95;;;6.10;99.90;;;;;;21093637;28;20035;-47
2022/09/26 00:55:51;;;;;;;15.38;9.90;;;6.20;99.90;;;;;;20984037;28;20074;-47
2022/09/26 01:05:55;;;;;;;13.18;9.32;;;6.70;99.90;;;;;;20999678;28;20489;-48
2022/09/26 01:15:59;;;;;;;13.82;8.45;;;7.30;99.90;;;;;;21054635;28;20150;-50
2022/09/26 01:26:28;;;;;;;12.50;8.05;;;7.10;99.90;;;;;;21052648;28;20032;-52
2022/09/26 01:36:45;;;;;;;9.85;6.50;;;6.90;99.90;;;;;;21053424;28;20032;-50
2022/09/26 01:47:12;;;;;;;8.52;5.90;;;6.80;99.90;;;;;;21072448;28;20374;-49
2022/09/26 01:57:25;;;;;;;4.43;3.33;;;6.80;99.90;;;;;;20984174;28;20547;-47
2022/09/26 02:07:47;;;;;;;9.52;5.78;;;6.40;99.90;;;;;;21025891;28;20066;-48
2022/09/26 02:18:01;;;;;;;6.10;4.15;;;6.30;99.90;;;;;;21049581;28;20089;-50
2022/09/26 02:28:04;;;;;;;9.23;6.25;;;6.40;99.90;;;;;;21048810;28;20031;-46
2022/09/26 02:38:07;;;;;;;13.82;8.50;;;6.40;99.90;;;;;;21047997;28;20035;-47
2022/09/26 02:48:27;;;;;;;15.45;10.60;;;6.60;99.90;;;;;;21101164;28;20085;-46
2022/09/26 02:58:43;;;;;;;14.10;9.73;;;7.20;99.90;;;;;;21061990;28;20176;-47
2022/09/26 03:08:48;;;;;;;13.13;8.77;;;7.50;99.90;;;;;;21062177;28;20036;-51
2022/09/26 03:19:09;;;;;;;13.35;8.75;;;7.30;99.90;;;;;;21061317;28;20089;-49
2022/09/26 03:29:11;;;;;;;10.93;7.22;;;7.30;99.90;;;;;;21061591;28;20035;-49
2022/09/26 03:39:15;;;;;;;11.70;8.35;;;7.10;99.90;;;;;;21043077;28;20040;-48
2022/09/26 03:49:50;;;;;;;9.68;7.03;;;7.00;99.90;;;;;;20841990;28;20099;-47
2022/09/26 03:59:54;;;;;;;10.25;6.70;;;6.90;99.90;;;;;;20801070;28;20046;-49
2022/09/26 04:09:57;;;;;;;7.28;5.05;;;6.80;99.90;;;;;;20799293;28;20049;-50
2022/09/26 04:20:00;;;;;;;6.18;4.35;;;6.80;99.90;;;;;;20842467;28;20078;-51
2022/09/26 04:30:03;;;;;;;4.65;3.33;;;6.90;99.90;;;;;;20955773;28;20050;-49
2022/09/26 04:40:27;;;;;;;5.05;3.75;;;6.40;99.90;;;;;;20970929;28;20108;-52
2022/09/26 04:50:38;;;;;;;2.85;2.30;;;6.00;99.90;;;;;;21032243;28;20077;-47
2022/09/26 05:00:48;;;;;;;2.10;1.50;;;6.20;99.90;;;;;;21053773;28;20550;-49
2022/09/26 05:10:58;;;;;;;1.65;1.00;;;6.30;99.90;;;;;;20969896;28;20064;-49
2022/09/26 05:21:01;;;;;;;1.08;0.60;;;6.60;99.90;;;;;;20986523;28;20477;-46
2022/09/26 05:31:04;;;;;;;0.43;0.38;;;6.90;99.90;;;;;;21070154;28;20433;-47
2022/09/26 05:41:06;;;;;;;0.55;0.40;;;6.90;99.90;;;;;;20987420;28;20093;-48
2022/09/26 05:51:14;;;;;;;0.30;0.20;;;7.10;99.90;;;;;;21121503;28;20101;-49
2022/09/26 06:01:19;;;;;;;;;;;7.20;99.90;;;;;;21051966;28;20040;-49
2022/09/26 06:11:29;;;;;;;0.15;0.00;;;7.40;99.90;;;;;;21066936;28;19923;-47
2022/09/26 06:21:32;;;;;;;0.00;0.00;;;7.60;99.90;;;;;;21066002;28;20040;-49
2022/09/26 06:31:45;;;;;;;0.30;0.00;;;7.60;99.90;;;;;;21047684;28;20422;-49
2022/09/26 06:41:47;;;;;;;0.00;0.00;;;7.50;99.90;;;;;;21070927;28;20081;-47
2022/09/26 06:52:10;;;;;;;0.00;0.00;;;7.80;99.90;;;;;;21090096;28;20098;-48
2022/09/26 07:02:15;;;;;;;0.00;0.00;;;8.40;99.90;;;;;;21046487;28;20040;-50
2022/09/26 07:12:47;;;;;;;0.00;0.00;;;9.20;99.90;;;;;;20723123;28;20038;-47
2022/09/26 07:22:51;;;;;;;0.00;0.00;;;10.10;99.90;;;;;;20722231;28;20209;-46
2022/09/26 07:33:02;;;;;;;2.42;0.00;;;10.90;99.90;;;;;;20721601;28;20132;-46
2022/09/26 07:43:27;;;;;;;0.00;0.00;;;11.70;99.90;;;;;;20857682;28;20481;-46
2022/09/26 07:53:30;;;;;;;0.00;0.00;;;12.10;99.90;;;;;;21090694;28;20032;-47
2022/09/26 08:04:13;;;;;;;0.00;0.00;;;12.60;99.90;;;;;;20789750;28;20053;-48
2022/09/26 08:14:16;;;;;;;0.00;0.00;;;13.20;99.90;;;;;;20784012;28;20107;-48
2022/09/26 08:24:34;;;;;;;0.28;0.10;;;13.60;99.90;;;;;;20799266;28;20045;-48
2022/09/26 08:34:57;;;;;;;0.15;0.10;;;14.20;99.90;;;;;;20973467;28;20473;-47
2022/09/26 08:56:07;;;;;;;0.30;0.20;;;15.50;99.90;;;;;;20741741;28;20104;-50
2022/09/26 09:06:14;;;;;;;0.10;0.00;;;15.90;99.90;;;;;;20746687;28;20095;-46
2022/09/26 09:16:27;;;;;;;0.13;0.10;;;16.30;99.90;;;;;;20843153;28;20045;-49
2022/09/26 09:26:59;;;;;;;0.28;0.10;;;17.20;99.90;;;;;;21046769;28;20416;-59
2022/09/26 09:37:18;;;;;;;0.10;0.10;;;18.60;99.90;;;;;;21052156;28;20036;-47
2022/09/26 09:47:38;;;;;;;0.22;0.03;;;19.20;99.00;;;;;;21089115;28;20073;-48
2022/09/26 09:57:59;;;;;;;0.35;0.20;;;19.10;98.20;;;;;;21051649;28;20044;-50
2022/09/26 10:08:08;;;;;;;1.58;0.20;;;19.40;99.90;;;;;;21038934;28;20036;-59
2022/09/26 10:18:30;;;;;;;1.02;0.60;;;19.90;97.60;;;;;;21066237;28;20036;-51
2022/09/26 10:28:56;;;;;;;0.68;0.40;;;18.60;97.60;;;;;;21065508;28;20455;-60
2022/09/26 10:49:42;;;;;;;1.35;0.80;;;18.70;99.80;;;;;;21117412;28;20036;-47
2022/09/26 10:59:46;;;;;;;1.00;0.90;;;18.50;99.50;;;;;;21063109;28;20090;-48
2022/09/26 11:09:48;;;;;;;0.93;0.85;;;18.80;99.20;;;;;;21045505;28;20036;-48
2022/09/26 11:20:14;;;;;;;1.08;0.98;;;18.50;99.10;;;;;;21060636;28;20085;-60
2022/09/26 11:30:21;;;;;;;2.22;1.75;;;18.60;99.90;;;;;;21060875;28;20031;-47
2022/09/26 11:40:51;;;;;;;2.53;2.20;;;19.70;98.40;;;;;;21059905;28;20404;-50
2022/09/26 11:50:56;;;;;;;3.38;3.00;;;20.90;99.80;;;;;;21095511;28;20040;-49
2022/09/26 12:01:22;;;;;;;4.00;3.05;;;20.70;98.00;;;;;;21058599;28;20036;-50
2022/09/26 12:11:52;;;;;;;3.08;2.78;;;20.90;97.60;;;;;;20974073;28;20062;-50
2022/09/26 12:32:41;;;;;;;1.77;1.40;;;21.10;96.60;;;;;;21055239;28;20032;-48
2022/09/26 12:42:44;;;;;;;2.45;1.70;;;20.80;96.60;;;;;;21069854;28;20031;-49
2022/09/26 12:53:11;;;;;;;1.80;1.35;;;20.10;96.40;;;;;;21093089;28;20074;-50
2022/09/26 13:03:55;;;;;;;1.90;1.30;;;19.90;96.30;;;;;;21054980;28;20040;-49
2022/09/26 13:14:11;;;;;;;3.50;2.53;;;20.00;95.60;;;;;;20634495;28;20038;-48
2022/09/26 13:24:19;;;;;;;3.85;3.50;;;19.60;95.70;;;;;;20633958;28;20392;-49
2022/09/26 13:34:46;;;;;;;4.50;3.13;;;19.30;96.00;;;;;;20633578;28;20042;-49
2022/09/26 13:45:15;;;;;;;4.88;4.35;;;18.50;97.10;;;;;;20826714;28;20273;-47
2022/09/26 13:55:20;;;;;;;8.20;6.72;;;17.90;98.00;;;;;;21068958;28;20044;-60
2022/09/26 14:05:43;;;;;;;8.85;7.07;;;17.00;99.90;;;;;;21068346;28;20413;-49
2022/09/26 14:15:48;;;;;;;12.15;7.80;;;16.30;99.90;;;;;;21067227;28;20036;-49
2022/09/26 14:25:54;;;;;;;9.98;7.43;;;15.80;99.90;;;;;;21065798;28;20834;-52
2022/09/26 14:36:17;;;;;;;10.60;8.73;;;15.00;99.90;;;;;;21064965;28;20081;-52
2022/09/26 14:46:24;;;;;;;12.05;10.27;;;15.00;99.90;;;;;;21109486;28;20435;-60
2022/09/26 14:56:31;;;;;;;14.10;10.98;;;14.80;99.90;;;;;;20986300;28;20358;-47
2022/09/26 15:06:39;;;;;;;14.23;12.20;;;14.30;99.90;;;;;;21014164;28;20097;-48
2022/09/26 15:16:49;;;;;;;17.02;12.35;;;13.60;99.90;;;;;;21062259;28;20485;-49
2022/09/26 15:26:54;;;;;;;18.60;13.80;;;13.00;99.90;;;;;;21061193;28;20040;-59
2022/09/26 15:36:59;;;;;;;16.65;13.32;;;12.50;99.90;;;;;;21060223;28;20117;-48
2022/09/26 15:47:27;;;;;;;15.05;12.27;;;12.30;99.90;;;;;;21110549;28;20377;-59
2022/09/26 15:57:30;;;;;;;15.10;12.68;;;12.00;99.90;;;;;;20638869;28;20081;-47
2022/09/26 16:07:33;;;;;;;14.63;11.68;;;11.80;99.90;;;;;;20638559;28;20081;-49
2022/09/26 16:17:45;;;;;;;17.08;14.30;;;11.50;99.90;;;;;;20637713;28;20046;-59
2022/09/26 16:28:10;;;;;;;16.38;13.38;;;11.30;99.90;;;;;;20707973;28;20404;-59
2022/09/26 16:38:34;;;;;;;21.35;14.80;;;10.90;99.90;;;;;;20699228;28;20151;-58
2022/09/26 16:48:48;;;;;;;20.17;15.45;;;10.50;99.90;;;;;;20768663;28;20038;-50
2022/09/26 16:59:00;;;;;;;18.95;13.95;;;10.20;99.90;;;;;;20790599;28;20041;-49
2022/09/26 17:09:14;;;;;;;17.75;12.07;;;9.70;99.90;;;;;;20820888;28;20102;-58
2022/09/26 17:19:17;;;;;;;19.55;13.38;;;9.20;99.90;;;;;;20919080;28;20058;-58
2022/09/26 17:29:33;;;;;;;20.13;14.18;;;8.90;99.90;;;;;;20969553;28;20383;-59
2022/09/26 17:39:35;;;;;;;20.73;15.80;;;8.70;99.90;;;;;;20968845;28;20041;-58
2022/09/26 17:49:41;;;;;;;21.65;16.63;;;8.80;99.90;;;;;;21021632;28;20037;-58
2022/09/26 17:59:44;;;;;;;22.67;15.75;;;9.10;99.90;;;;;;21051821;28;20044;-48
2022/09/26 18:09:49;;;;;;;22.35;17.02;;;9.40;99.90;;;;;;21051140;28;20093;-51
2022/09/26 18:19:51;;;;;;;24.42;17.13;;;9.50;99.90;;;;;;21050631;28;20035;-48
2022/09/26 18:29:54;;;;;;;23.75;17.10;;;9.40;99.90;;;;;;21054373;28;20040;-49
2022/09/26 18:39:57;;;;;;;27.08;19.33;;;9.20;99.90;;;;;;21064605;28;20036;-49
2022/09/26 18:50:01;;;;;;;26.05;18.42;;;9.30;99.90;;;;;;21117191;28;20043;-48
2022/09/26 19:00:04;;;;;;;30.52;20.90;;;9.20;99.90;;;;;;21046867;28;20040;-59
2022/09/26 19:10:16;;;;;;;29.75;20.90;;;9.40;99.90;;;;;;21062651;28;20085;-59
2022/09/26 19:20:19;;;;;;;30.08;20.92;;;9.70;99.90;;;;;;21061832;28;20028;-50
2022/09/26 19:30:23;;;;;;;29.02;20.90;;;9.90;99.90;;;;;;21060962;28;20028;-50
2022/09/26 19:40:26;;;;;;;32.63;21.60;;;10.10;99.90;;;;;;21059561;28;20094;-49
2022/09/26 19:50:33;;;;;;;36.33;22.42;;;10.40;99.90;;;;;;21112287;28;20036;-49
2022/09/26 20:00:40;;;;;;;30.10;20.70;;;10.40;99.90;;;;;;21058571;28;20544;-49
2022/09/26 20:10:43;;;;;;;33.75;21.60;;;10.40;99.90;;;;;;21057673;28;20040;-49
2022/09/26 20:20:53;;;;;;;34.78;25.42;;;10.40;99.90;;;;;;21056657;28;20098;-47
2022/09/26 20:30:57;;;;;;;47.30;30.40;;;10.40;99.90;;;;;;21056292;28;20087;-47
2022/09/26 20:41:31;;;;;;;43.75;29.50;;;10.50;99.90;;;;;;21055126;28;20036;-50
2022/09/26 20:51:34;;;;;;;36.40;26.30;;;10.50;99.90;;;;;;20554244;28;20611;-59
2022/09/26 21:01:40;;;;;;;74.53;28.15;;;10.50;99.90;;;;;;20555018;28;20055;-49
2022/09/26 21:11:52;;;;;;;22.70;14.32;;;10.50;99.90;;;;;;20553871;28;20055;-51
2022/09/26 21:21:58;;;;;;;15.63;8.95;;;10.10;99.90;;;;;;20646776;28;20494;-49
2022/09/26 21:32:21;;;;;;;6.95;5.28;;;9.60;99.90;;;;;;20870032;28;20033;-49
2022/09/26 21:42:25;;;;;;;8.25;6.07;;;8.80;99.90;;;;;;20925096;28;20090;-48
2022/09/26 21:52:34;;;;;;;10.05;6.10;;;8.50;99.90;;;;;;20990651;28;20087;-47
2022/09/26 22:02:40;;;;;;;13.55;8.10;;;8.30;99.90;;;;;;20972390;28;20075;-47
2022/09/26 22:12:42;;;;;;;13.55;8.68;;;8.20;99.90;;;;;;21050810;28;20082;-48
2022/09/26 22:22:45;;;;;;;15.68;9.05;;;8.20;99.90;;;;;;21066213;28;20032;-47
2022/09/26 22:32:47;;;;;;;18.38;11.13;;;8.10;99.90;;;;;;21065691;28;20032;-62
2022/09/26 22:42:50;;;;;;;21.27;12.77;;;8.10;99.90;;;;;;21080046;28;20036;-62
2022/09/26 22:52:52;;;;;;;26.25;13.85;;;8.20;99.90;;;;;;21101475;28;20105;-53
2022/09/26 23:02:56;;;;;;;29.98;17.05;;;8.40;99.90;;;;;;21063070;28;20028;-47
2022/09/26 23:12:58;;;;;;;22.77;13.88;;;8.50;99.90;;;;;;21062384;28;20040;-48
2022/09/26 23:23:01;;;;;;;18.33;12.15;;;8.40;99.90;;;;;;21061058;28;20504;-47
2022/09/26 23:33:03;;;;;;;19.48;12.48;;;8.40;99.90;;;;;;21060817;28;20028;-49
2022/09/26 23:43:09;;;;;;;28.65;18.48;;;8.40;99.90;;;;;;21077616;28;20065;-47
2022/09/26 23:53:12;;;;;;;23.85;16.33;;;8.50;99.90;;;;;;21094049;28;20450;-47
